createdAt,value
2018-07-06T00:01:28.246Z,18.80
2018-07-06T00:04:07.967Z,18.70
2018-07-06T00:06:47.612Z,18.70
2018-07-06T00:09:27.195Z,18.70
2018-07-06T00:12:06.882Z,18.70
2018-07-06T00:14:46.451Z,18.80
2018-07-06T00:17:26.090Z,18.80
2018-07-06T00:20:05.824Z,18.90
2018-07-06T00:22:45.521Z,19.00
2018-07-06T00:25:25.117Z,19.00
2018-07-06T00:28:04.875Z,19.00
2018-07-06T00:30:44.632Z,19.10
2018-07-06T00:33:24.472Z,19.10
2018-07-06T00:36:04.068Z,19.00
2018-07-06T00:38:43.799Z,19.00
2018-07-06T00:41:23.584Z,19.00
2018-07-06T00:44:03.262Z,18.80
2018-07-06T00:46:43.008Z,18.80
2018-07-06T00:49:22.679Z,18.80
2018-07-06T00:52:02.364Z,18.70
2018-07-06T00:54:42.072Z,18.70
2018-07-06T00:57:21.825Z,18.70
2018-07-06T01:00:01.292Z,18.70
2018-07-06T01:02:40.799Z,18.70
2018-07-06T01:05:20.369Z,18.60
2018-07-06T01:08:00.016Z,18.60
2018-07-06T01:10:39.759Z,18.50
2018-07-06T01:13:19.441Z,18.50
2018-07-06T01:18:32.818Z,18.50
2018-07-06T01:21:12.542Z,18.40
2018-07-06T01:23:52.137Z,18.40
2018-07-06T01:26:31.764Z,18.40
2018-07-06T01:29:11.275Z,18.40
2018-07-06T01:31:50.804Z,18.30
2018-07-06T01:34:30.346Z,18.30
2018-07-06T01:37:09.888Z,18.20
2018-07-06T01:39:49.682Z,18.20
2018-07-06T01:42:29.200Z,18.10
2018-07-06T01:45:08.743Z,18.10
2018-07-06T01:47:48.265Z,18.10
2018-07-06T01:50:27.748Z,18.00
2018-07-06T01:53:07.484Z,17.90
2018-07-06T01:55:47.024Z,17.90
2018-07-06T01:58:26.390Z,17.90
2018-07-06T02:01:05.972Z,17.90
2018-07-06T02:03:45.632Z,17.90
2018-07-06T02:06:25.031Z,17.80
2018-07-06T02:09:04.712Z,17.70
2018-07-06T02:11:44.370Z,17.60
2018-07-06T02:14:23.862Z,17.60
2018-07-06T02:17:03.442Z,17.60
2018-07-06T02:19:42.899Z,17.60
2018-07-06T02:24:56.277Z,17.50
2018-07-06T02:27:36.098Z,17.40
2018-07-06T02:30:15.540Z,17.50
2018-07-06T02:35:28.664Z,17.30
2018-07-06T02:38:08.203Z,17.40
2018-07-06T02:40:47.894Z,17.30
2018-07-06T02:43:27.539Z,17.30
2018-07-06T02:46:07.135Z,17.30
2018-07-06T02:48:46.902Z,17.30
2018-07-06T02:51:26.518Z,17.40
2018-07-06T02:54:06.180Z,17.40
2018-07-06T02:59:19.407Z,17.40
2018-07-06T03:01:59.094Z,17.40
2018-07-06T03:04:38.508Z,17.40
2018-07-06T03:07:18.115Z,17.40
2018-07-06T03:09:57.754Z,17.40
2018-07-06T03:12:37.544Z,17.40
2018-07-06T03:15:17.240Z,17.50
2018-07-06T03:17:56.810Z,17.50
2018-07-06T03:20:36.356Z,17.50
2018-07-06T03:23:16.015Z,17.50
2018-07-06T03:25:55.508Z,17.60
2018-07-06T03:28:35.469Z,17.60
2018-07-06T03:31:15.211Z,17.60
2018-07-06T03:33:54.980Z,17.60
2018-07-06T03:36:34.767Z,17.60
2018-07-06T03:39:14.385Z,17.50
2018-07-06T03:41:53.806Z,17.50
2018-07-06T03:44:33.348Z,17.50
2018-07-06T03:47:13.024Z,17.60
2018-07-06T03:49:52.645Z,17.60
2018-07-06T03:52:32.206Z,17.60
2018-07-06T03:55:11.862Z,17.60
2018-07-06T03:57:51.451Z,17.70
2018-07-06T04:00:31.066Z,17.70
2018-07-06T04:03:10.627Z,17.70
2018-07-06T04:05:50.352Z,17.70
2018-07-06T04:08:30.065Z,17.70
2018-07-06T04:11:09.784Z,17.70
2018-07-06T04:13:49.267Z,17.70
2018-07-06T04:16:29.024Z,17.80
2018-07-06T04:19:10.988Z,17.80
2018-07-06T04:21:51.486Z,17.90
2018-07-06T04:24:31.440Z,17.90
2018-07-06T04:27:11.999Z,17.80
2018-07-06T04:29:51.436Z,17.90
2018-07-06T04:35:04.839Z,17.90
2018-07-06T04:37:44.460Z,17.80
2018-07-06T04:40:24.379Z,17.80
2018-07-06T04:43:04.368Z,17.70
2018-07-06T04:45:44.239Z,17.80
2018-07-06T04:48:23.843Z,17.70
2018-07-06T04:53:37.089Z,17.60
2018-07-06T04:56:16.656Z,17.70
2018-07-06T04:58:56.231Z,17.80
2018-07-06T05:01:36.319Z,17.70
2018-07-06T05:04:16.286Z,17.70
2018-07-06T05:12:02.975Z,17.80
2018-07-06T05:14:42.763Z,17.80
2018-07-06T05:17:22.380Z,17.80
2018-07-06T05:20:02.171Z,17.80
2018-07-06T05:22:41.817Z,17.80
2018-07-06T05:25:21.455Z,17.90
2018-07-06T05:28:01.309Z,17.90
2018-07-06T05:33:14.631Z,18.00
2018-07-06T05:35:54.169Z,18.00
2018-07-06T05:38:33.826Z,18.00
2018-07-06T05:41:13.248Z,18.00
2018-07-06T05:43:53.082Z,18.00
2018-07-06T05:46:32.894Z,18.10
2018-07-06T05:49:13.126Z,18.00
2018-07-06T05:51:52.890Z,18.00
2018-07-06T05:54:32.486Z,18.00
2018-07-06T05:57:12.076Z,18.00
2018-07-06T05:59:51.715Z,17.90
2018-07-06T06:02:31.467Z,18.00
2018-07-06T06:05:11.107Z,18.00
2018-07-06T06:07:38.314Z,18.00
2018-07-06T06:10:06.411Z,18.10
2018-07-06T06:12:34.542Z,18.10
2018-07-06T06:15:02.608Z,18.20
2018-07-06T06:17:30.752Z,18.20
2018-07-06T06:19:58.854Z,18.20
2018-07-06T06:22:26.991Z,18.10
2018-07-06T06:24:55.162Z,18.20
2018-07-06T06:27:23.259Z,18.20
2018-07-06T06:29:51.641Z,18.20
2018-07-06T06:32:19.974Z,18.20
2018-07-06T06:34:48.234Z,18.20
2018-07-06T06:37:16.321Z,18.30
2018-07-06T06:39:44.495Z,18.30
2018-07-06T06:42:12.645Z,18.40
2018-07-06T06:44:40.801Z,18.50
2018-07-06T06:47:08.900Z,18.50
2018-07-06T06:49:37.046Z,18.50
2018-07-06T06:52:05.154Z,18.60
2018-07-06T06:54:33.259Z,18.50
2018-07-06T06:57:01.373Z,18.40
2018-07-06T06:59:29.491Z,18.40
2018-07-06T07:01:57.603Z,18.40
2018-07-06T07:04:25.750Z,18.40
2018-07-06T07:07:00.403Z,18.50
2018-07-06T07:09:28.731Z,18.50
2018-07-06T07:11:56.851Z,18.60
2018-07-06T07:14:24.975Z,18.60
2018-07-06T07:16:53.046Z,18.70
2018-07-06T07:19:21.123Z,18.80
2018-07-06T07:21:49.226Z,18.90
2018-07-06T07:24:17.338Z,18.80
2018-07-06T07:26:45.411Z,18.80
2018-07-06T07:29:13.502Z,18.80
2018-07-06T07:31:41.563Z,18.70
2018-07-06T07:34:09.670Z,18.90
2018-07-06T07:36:37.761Z,18.90
2018-07-06T07:39:05.876Z,18.90
2018-07-06T07:41:33.989Z,19.00
2018-07-06T07:44:02.116Z,18.90
2018-07-06T07:46:30.204Z,19.00
2018-07-06T07:48:58.358Z,19.00
2018-07-06T07:52:04.554Z,19.00
2018-07-06T07:57:07.132Z,19.10
2018-07-06T08:02:03.879Z,19.40
2018-07-06T08:04:32.473Z,19.50
2018-07-06T08:07:00.584Z,19.60
2018-07-06T08:09:28.838Z,19.60
2018-07-06T08:11:58.393Z,19.70
2018-07-06T08:14:26.830Z,19.80
2018-07-06T08:16:55.011Z,19.70
2018-07-06T08:19:23.669Z,19.80
2018-07-06T08:21:51.794Z,19.80
2018-07-06T08:24:20.577Z,19.80
2018-07-06T08:26:48.980Z,19.80
2018-07-06T08:29:17.125Z,20.00
2018-07-06T08:31:45.605Z,20.10
2018-07-06T08:34:25.073Z,20.10
2018-07-06T08:37:37.347Z,20.10
2018-07-06T08:40:05.409Z,20.10
2018-07-06T08:42:34.610Z,20.40
2018-07-06T08:45:03.282Z,20.40
2018-07-06T08:47:31.345Z,20.30
2018-07-06T08:50:01.070Z,20.40
2018-07-06T08:52:29.226Z,20.60
2018-07-06T08:54:57.322Z,20.60
2018-07-06T08:59:54.912Z,20.70
2018-07-06T09:02:23.518Z,20.80
2018-07-06T09:04:52.573Z,20.70
2018-07-06T09:07:20.726Z,20.70
2018-07-06T09:09:48.992Z,20.80
2018-07-06T09:12:17.071Z,20.90
2018-07-06T09:14:45.135Z,21.00
2018-07-06T09:17:14.405Z,21.10
2018-07-06T09:19:43.067Z,21.00
2018-07-06T09:22:11.495Z,20.90
2018-07-06T09:24:39.829Z,20.90
2018-07-06T09:27:08.053Z,20.90
2018-07-06T09:29:36.138Z,20.90
2018-07-06T09:32:04.235Z,20.90
2018-07-06T09:34:32.267Z,20.90
2018-07-06T09:37:00.375Z,20.90
2018-07-06T09:39:28.479Z,20.90
2018-07-06T09:41:56.551Z,20.90
2018-07-06T09:44:24.648Z,21.00
2018-07-06T09:46:52.730Z,21.20
2018-07-06T09:49:20.820Z,21.20
2018-07-06T09:51:48.892Z,21.20
2018-07-06T09:54:16.987Z,21.20
2018-07-06T09:56:45.108Z,21.30
2018-07-06T09:59:13.384Z,21.20
2018-07-06T10:01:41.567Z,21.00
2018-07-06T10:04:09.738Z,20.90
2018-07-06T10:06:37.850Z,20.80
2018-07-06T10:09:06.826Z,20.80
2018-07-06T10:11:34.945Z,21.00
2018-07-06T10:14:03.458Z,21.00
2018-07-06T10:16:31.534Z,21.00
2018-07-06T10:18:59.697Z,20.90
2018-07-06T10:21:28.093Z,21.00
2018-07-06T10:23:56.353Z,21.00
2018-07-06T10:26:24.527Z,21.00
2018-07-06T10:31:50.204Z,20.70
2018-07-06T10:34:18.685Z,20.60
2018-07-06T10:36:47.240Z,20.50
2018-07-06T10:39:15.341Z,20.50
2018-07-06T10:41:43.415Z,20.70
2018-07-06T10:44:11.494Z,20.80
2018-07-06T10:46:39.591Z,20.80
2018-07-06T10:49:07.711Z,20.80
2018-07-06T10:51:35.798Z,20.70
2018-07-06T10:54:03.884Z,20.60
2018-07-06T10:56:31.979Z,20.50
2018-07-06T10:59:00.095Z,20.50
2018-07-06T11:01:28.240Z,20.60
2018-07-06T11:03:56.331Z,20.50
2018-07-06T11:06:24.449Z,20.60
2018-07-06T11:08:52.630Z,20.70
2018-07-06T11:11:20.680Z,20.60
2018-07-06T11:13:48.784Z,20.50
2018-07-06T11:16:16.870Z,20.60
2018-07-06T11:18:44.969Z,20.70
2018-07-06T11:21:13.073Z,20.80
2018-07-06T11:23:41.182Z,21.00
2018-07-06T11:26:09.300Z,21.20
2018-07-06T11:28:37.396Z,21.30
2018-07-06T11:31:05.664Z,21.30
2018-07-06T11:33:33.806Z,21.10
2018-07-06T11:36:01.884Z,21.20
2018-07-06T11:38:29.982Z,21.20
2018-07-06T11:40:58.076Z,21.20
2018-07-06T11:43:26.217Z,21.00
2018-07-06T11:45:54.316Z,20.90
2018-07-06T11:48:22.546Z,21.10
2018-07-06T11:50:50.615Z,20.80
2018-07-06T11:53:18.680Z,21.00
2018-07-06T11:55:46.799Z,21.10
2018-07-06T11:58:14.983Z,21.30
2018-07-06T12:00:43.106Z,21.50
2018-07-06T12:03:11.341Z,21.60
2018-07-06T12:05:39.666Z,21.70
2018-07-06T12:08:08.216Z,21.80
2018-07-06T12:10:36.308Z,21.80
2018-07-06T12:13:04.401Z,21.70
2018-07-06T12:15:32.474Z,21.60
2018-07-06T12:18:00.690Z,21.70
2018-07-06T12:20:28.771Z,21.50
2018-07-06T12:22:56.839Z,21.60
2018-07-06T12:25:24.909Z,21.60
2018-07-06T12:27:53.283Z,21.70
2018-07-06T12:30:21.347Z,21.80
2018-07-06T12:32:49.435Z,21.80
2018-07-06T12:37:45.406Z,21.70
2018-07-06T12:40:13.535Z,21.60
2018-07-06T12:42:41.640Z,21.50
2018-07-06T12:45:10.763Z,21.60
2018-07-06T12:47:38.831Z,21.70
2018-07-06T12:50:06.948Z,21.80
2018-07-06T12:52:35.515Z,21.90
2018-07-06T12:55:03.614Z,21.80
2018-07-06T12:57:31.894Z,21.60
2018-07-06T12:59:59.991Z,21.50
2018-07-06T13:02:28.065Z,21.80
2018-07-06T13:04:56.231Z,21.80
2018-07-06T13:07:24.345Z,22.10
2018-07-06T13:09:52.423Z,22.20
2018-07-06T13:12:20.569Z,22.30
2018-07-06T13:14:48.641Z,22.40
2018-07-06T13:17:16.764Z,22.60
2018-07-06T13:19:44.932Z,22.50
2018-07-06T13:22:13.469Z,22.30
2018-07-06T13:24:41.566Z,22.20
2018-07-06T13:27:09.657Z,22.30
2018-07-06T13:29:37.767Z,22.50
2018-07-06T13:32:06.007Z,22.50
2018-07-06T13:34:34.087Z,22.30
2018-07-06T13:37:02.189Z,22.50
2018-07-06T13:39:30.281Z,22.20
2018-07-06T13:41:58.391Z,22.20
2018-07-06T13:44:26.501Z,22.50
2018-07-06T13:51:50.476Z,22.60
2018-07-06T13:54:18.554Z,22.60
2018-07-06T13:56:46.818Z,22.60
2018-07-06T13:59:14.975Z,22.70
2018-07-06T14:01:43.015Z,22.70
2018-07-06T14:04:11.106Z,22.50
2018-07-06T14:06:39.196Z,22.40
2018-07-06T14:09:07.314Z,22.40
2018-07-06T14:11:35.430Z,22.50
2018-07-06T14:14:03.518Z,22.70
2018-07-06T14:16:31.610Z,22.80
2018-07-06T14:18:59.755Z,22.90
2018-07-06T14:21:27.830Z,23.00
2018-07-06T14:23:55.917Z,23.00
2018-07-06T14:26:24.011Z,23.10
2018-07-06T14:28:52.095Z,23.10
2018-07-06T14:31:21.201Z,23.20
2018-07-06T14:33:51.057Z,23.30
2018-07-06T14:36:22.482Z,23.30
2018-07-06T14:38:52.103Z,23.30
2018-07-06T14:41:20.351Z,23.20
2018-07-06T14:43:48.440Z,23.30
2018-07-06T14:46:16.499Z,23.20
2018-07-06T14:48:46.673Z,23.20
2018-07-06T14:51:16.111Z,23.10
2018-07-06T14:53:51.802Z,22.90
2018-07-06T14:56:22.981Z,22.70
2018-07-06T14:58:51.363Z,23.00
2018-07-06T15:01:19.455Z,23.20
2018-07-06T15:03:47.555Z,23.40
2018-07-06T15:06:15.655Z,23.50
2018-07-06T15:08:43.949Z,23.60
2018-07-06T15:11:12.158Z,23.70
2018-07-06T15:13:40.279Z,23.60
2018-07-06T15:16:08.943Z,23.70
2018-07-06T15:18:37.032Z,23.80
2018-07-06T15:21:05.160Z,23.90
2018-07-06T15:23:33.329Z,23.90
2018-07-06T15:26:01.599Z,23.90
2018-07-06T15:28:30.045Z,24.10
2018-07-06T15:33:31.233Z,23.70
2018-07-06T15:35:59.357Z,23.50
2018-07-06T15:38:27.464Z,23.50
2018-07-06T15:40:55.857Z,23.50
2018-07-06T15:43:23.968Z,23.60
2018-07-06T15:45:52.062Z,23.70
2018-07-06T15:48:20.329Z,23.50
2018-07-06T15:50:48.440Z,23.40
2018-07-06T15:53:16.517Z,23.40
2018-07-06T15:55:44.600Z,23.50
2018-07-06T15:58:12.766Z,23.50
2018-07-06T16:00:40.873Z,23.50
2018-07-06T16:03:08.991Z,23.40
2018-07-06T16:05:37.156Z,23.30
2018-07-06T16:08:05.372Z,23.40
2018-07-06T16:10:33.483Z,23.40
2018-07-06T16:13:01.720Z,23.50
2018-07-06T16:15:29.859Z,23.70
2018-07-06T16:17:57.978Z,23.90
2018-07-06T16:20:26.051Z,23.80
2018-07-06T16:25:22.024Z,23.60
2018-07-06T16:27:50.094Z,23.60
2018-07-06T16:30:18.221Z,23.50
2018-07-06T16:32:46.400Z,23.40
2018-07-06T16:35:14.494Z,23.40
2018-07-06T16:37:42.551Z,23.40
2018-07-06T16:40:10.693Z,23.30
2018-07-06T16:42:38.792Z,23.30
2018-07-06T16:45:06.895Z,23.30
2018-07-06T16:47:34.984Z,23.20
2018-07-06T16:50:03.098Z,23.10
2018-07-06T16:52:31.163Z,23.10
2018-07-06T16:54:59.249Z,23.20
2018-07-06T16:57:27.317Z,23.20
2018-07-06T16:59:55.430Z,23.20
2018-07-06T17:02:23.516Z,23.20
2018-07-06T17:04:51.583Z,23.20
2018-07-06T17:07:19.708Z,23.20
2018-07-06T17:09:47.795Z,23.20
2018-07-06T17:12:15.920Z,23.20
2018-07-06T17:14:44.019Z,23.10
2018-07-06T17:17:12.088Z,23.10
2018-07-06T17:19:40.191Z,23.10
2018-07-06T17:22:08.285Z,23.20
2018-07-06T17:27:04.332Z,23.20
2018-07-06T17:29:32.561Z,23.30
2018-07-06T17:32:00.765Z,23.20
2018-07-06T17:36:49.151Z,23.10
2018-07-06T17:39:17.288Z,22.90
2018-07-06T17:41:45.363Z,22.90
2018-07-06T17:44:13.595Z,22.90
2018-07-06T17:46:41.723Z,22.90
2018-07-06T17:49:09.795Z,22.90
2018-07-06T17:51:37.905Z,22.80
2018-07-06T17:54:06.059Z,22.90
2018-07-06T17:56:34.152Z,22.90
2018-07-06T17:59:02.363Z,22.80
2018-07-06T18:01:30.449Z,22.90
2018-07-06T18:03:58.592Z,22.80
2018-07-06T18:06:26.728Z,22.90
2018-07-06T18:08:54.991Z,22.80
2018-07-06T18:11:23.200Z,22.70
2018-07-06T18:13:51.285Z,22.70
2018-07-06T18:16:19.386Z,22.70
2018-07-06T18:18:47.546Z,22.70
2018-07-06T18:21:16.085Z,22.70
2018-07-06T18:23:44.183Z,22.70
2018-07-06T18:26:12.280Z,22.60
2018-07-06T18:28:40.351Z,22.60
2018-07-06T18:31:08.463Z,22.60
2018-07-06T18:33:36.718Z,22.70
2018-07-06T18:36:04.851Z,22.70
2018-07-06T18:38:32.974Z,22.60
2018-07-06T18:41:01.093Z,22.50
2018-07-06T18:43:29.210Z,22.40
2018-07-06T18:45:57.294Z,22.30
2018-07-06T18:48:25.380Z,22.20
2018-07-06T18:50:53.484Z,22.20
2018-07-06T18:53:21.586Z,22.10
2018-07-06T18:55:49.684Z,22.00
2018-07-06T18:58:17.770Z,22.00
2018-07-06T19:00:45.901Z,21.90
2018-07-06T19:03:14.013Z,21.80
2018-07-06T19:05:42.171Z,21.80
2018-07-06T19:08:10.307Z,21.70
2018-07-06T19:13:06.385Z,21.70
2018-07-06T19:15:34.486Z,21.60
2018-07-06T19:18:02.602Z,21.60
2018-07-06T19:20:30.675Z,21.60
2018-07-06T19:22:58.826Z,21.50
2018-07-06T19:25:26.924Z,21.50
2018-07-06T19:27:55.078Z,21.40
2018-07-06T19:30:23.219Z,21.30
2018-07-06T19:32:51.351Z,21.30
2018-07-06T19:35:19.450Z,21.20
2018-07-06T19:37:47.538Z,21.10
2018-07-06T19:40:15.647Z,21.00
2018-07-06T19:42:43.756Z,21.00
2018-07-06T19:45:11.854Z,20.90
2018-07-06T19:47:39.957Z,20.80
2018-07-06T19:50:08.067Z,20.90
2018-07-06T19:52:36.147Z,20.80
2018-07-06T19:55:04.185Z,20.80
2018-07-06T19:57:32.400Z,20.70
2018-07-06T20:00:00.586Z,20.70
2018-07-06T20:02:28.732Z,20.60
2018-07-06T20:04:56.816Z,20.50
2018-07-06T20:07:24.944Z,20.50
2018-07-06T20:09:53.107Z,20.40
2018-07-06T20:12:21.232Z,20.40
2018-07-06T20:14:49.307Z,20.30
2018-07-06T20:17:17.441Z,20.30
2018-07-06T20:19:45.524Z,20.20
2018-07-06T20:22:13.594Z,20.20
2018-07-06T20:24:41.724Z,20.20
2018-07-06T20:27:09.814Z,20.10
2018-07-06T20:29:37.972Z,20.00
2018-07-06T20:32:06.182Z,19.90
2018-07-06T20:34:34.272Z,19.80
2018-07-06T20:37:02.367Z,19.80
2018-07-06T20:39:30.482Z,19.80
2018-07-06T20:41:58.550Z,19.70
2018-07-06T20:44:26.706Z,19.60
2018-07-06T20:46:54.787Z,19.60
2018-07-06T20:49:22.883Z,19.50
2018-07-06T20:51:50.938Z,19.50
2018-07-06T20:54:19.037Z,19.40
2018-07-06T20:56:47.104Z,19.40
2018-07-06T20:59:15.241Z,19.30
2018-07-06T21:01:43.367Z,19.20
2018-07-06T21:04:11.512Z,19.30
2018-07-06T21:06:39.599Z,19.20
2018-07-06T21:09:07.686Z,19.20
2018-07-06T21:11:35.789Z,19.10
2018-07-06T21:14:03.871Z,19.10
2018-07-06T21:18:59.802Z,18.90
2018-07-06T21:21:27.908Z,18.90
2018-07-06T21:23:55.971Z,18.90
2018-07-06T21:26:24.094Z,18.80
2018-07-06T21:28:52.427Z,18.80
2018-07-06T21:31:20.547Z,18.80
2018-07-06T21:33:48.712Z,18.70
2018-07-06T21:36:16.843Z,18.70
2018-07-06T21:38:44.928Z,18.60
2018-07-06T21:41:13.000Z,18.60
2018-07-06T21:46:08.943Z,18.40
2018-07-06T21:48:37.071Z,18.40
2018-07-06T21:51:05.231Z,18.30
2018-07-06T21:53:33.256Z,18.20
2018-07-06T21:56:01.397Z,18.20
2018-07-06T21:58:29.453Z,18.10
2018-07-06T22:00:57.544Z,18.00
2018-07-06T22:03:25.648Z,18.00
2018-07-06T22:05:53.730Z,18.00
2018-07-06T22:08:21.780Z,18.00
2018-07-06T22:10:49.867Z,17.90
2018-07-06T22:13:17.938Z,17.80
2018-07-06T22:15:46.856Z,17.70
2018-07-06T22:18:17.404Z,17.70
2018-07-06T22:20:46.444Z,17.70
2018-07-06T22:23:15.091Z,17.70
2018-07-06T22:25:43.310Z,17.70
2018-07-06T22:28:11.501Z,17.60
2018-07-06T22:33:07.504Z,17.40
2018-07-06T22:35:35.572Z,17.40
2018-07-06T22:38:03.613Z,17.40
2018-07-06T22:40:38.586Z,17.30
2018-07-06T22:43:06.698Z,17.30
2018-07-06T22:45:34.762Z,17.20
2018-07-06T22:48:02.815Z,17.10
2018-07-06T22:50:30.905Z,17.10
2018-07-06T22:52:59.005Z,17.10
2018-07-06T22:55:27.073Z,17.00
2018-07-06T22:57:55.187Z,17.00
2018-07-06T23:00:23.259Z,16.90
2018-07-06T23:02:51.339Z,16.80
2018-07-06T23:05:20.398Z,16.80
2018-07-06T23:07:48.582Z,16.80
2018-07-06T23:10:16.669Z,16.70
2018-07-06T23:12:44.736Z,16.60
2018-07-06T23:15:12.831Z,16.60
2018-07-06T23:17:40.912Z,16.60
2018-07-06T23:20:08.982Z,16.50
2018-07-06T23:23:05.673Z,16.40
2018-07-06T23:25:34.772Z,16.40
2018-07-06T23:28:02.835Z,16.40
2018-07-06T23:30:30.895Z,16.30
2018-07-06T23:33:00.135Z,16.30
2018-07-06T23:35:28.213Z,16.20
2018-07-06T23:37:56.466Z,16.20
2018-07-06T23:40:24.540Z,16.10
2018-07-06T23:42:52.638Z,16.10
2018-07-06T23:45:21.000Z,16.10
2018-07-06T23:47:49.077Z,16.10
2018-07-06T23:50:17.647Z,16.00
2018-07-06T23:52:45.772Z,15.90
2018-07-06T23:55:14.227Z,15.90
2018-07-06T23:57:42.384Z,15.80
